createdAt,value
2022-12-16T00:01:28.334Z,-0.70
2022-12-16T00:03:58.575Z,-0.60
2022-12-16T00:06:30.753Z,-0.70
2022-12-16T00:08:59.418Z,-0.60
2022-12-16T00:11:27.701Z,-0.60
2022-12-16T00:13:55.522Z,-0.70
2022-12-16T00:16:23.490Z,-0.70
2022-12-16T00:18:52.702Z,-0.80
2022-12-16T00:21:20.925Z,-0.80
2022-12-16T00:23:49.164Z,-0.90
2022-12-16T00:26:16.987Z,-1.00
2022-12-16T00:28:44.797Z,-1.00
2022-12-16T00:31:13.031Z,-0.80
2022-12-16T00:33:41.023Z,-0.90
2022-12-16T00:36:10.935Z,-0.90
2022-12-16T00:38:39.280Z,-0.80
2022-12-16T00:41:08.075Z,-0.80
2022-12-16T00:43:36.217Z,-0.80
2022-12-16T00:46:04.311Z,-0.90
2022-12-16T00:48:32.160Z,-0.90
2022-12-16T00:50:59.991Z,-0.90
2022-12-16T00:53:29.484Z,-1.00
2022-12-16T00:56:03.952Z,-1.00
2022-12-16T00:58:31.785Z,-1.00
2022-12-16T01:00:59.705Z,-1.10
2022-12-16T01:03:27.979Z,-1.20
2022-12-16T01:05:55.828Z,-1.30
2022-12-16T01:08:24.071Z,-1.30
2022-12-16T01:10:55.378Z,-1.30
2022-12-16T01:13:24.239Z,-1.30
2022-12-16T01:15:52.212Z,-1.20
2022-12-16T01:18:20.578Z,-1.20
2022-12-16T01:20:48.418Z,-1.10
2022-12-16T01:23:16.237Z,-1.10
2022-12-16T01:25:44.055Z,-1.10
2022-12-16T01:28:13.193Z,-1.10
2022-12-16T01:30:41.032Z,-1.10
2022-12-16T01:33:08.820Z,-1.00
2022-12-16T01:35:55.174Z,-0.80
2022-12-16T01:38:24.128Z,-0.80
2022-12-16T01:40:52.573Z,-0.80
2022-12-16T01:43:28.061Z,-0.70
2022-12-16T01:46:00.190Z,-0.60
2022-12-16T01:48:36.708Z,-0.60
2022-12-16T01:51:08.118Z,-0.60
2022-12-16T01:53:39.041Z,-0.60
2022-12-16T01:56:07.630Z,-0.50
2022-12-16T01:58:40.489Z,-0.60
2022-12-16T02:01:09.031Z,-0.40
2022-12-16T02:03:38.267Z,-0.50
2022-12-16T02:06:07.992Z,-0.60
2022-12-16T02:08:36.445Z,-0.40
2022-12-16T02:11:37.738Z,-0.40
2022-12-16T02:14:31.939Z,-0.50
2022-12-16T02:17:04.787Z,-0.70
2022-12-16T02:20:03.840Z,-0.70
2022-12-16T02:22:43.820Z,-0.80
2022-12-16T02:25:37.983Z,-0.70
2022-12-16T02:28:11.352Z,-0.80
2022-12-16T02:30:57.255Z,-0.80
2022-12-16T02:33:36.721Z,-0.70
2022-12-16T02:36:13.149Z,-0.70
2022-12-16T02:38:53.382Z,-0.70
2022-12-16T02:41:31.327Z,-0.80
2022-12-16T02:44:03.762Z,-0.80
2022-12-16T02:46:34.771Z,-0.80
2022-12-16T02:49:07.644Z,-0.70
2022-12-16T02:51:37.443Z,-0.70
2022-12-16T02:54:06.633Z,-0.80
2022-12-16T02:56:48.534Z,-0.70
2022-12-16T02:59:21.585Z,-0.70
2022-12-16T03:01:56.806Z,-0.80
2022-12-16T03:04:30.971Z,-0.70
2022-12-16T03:07:01.590Z,-0.60
2022-12-16T03:09:34.645Z,-0.80
2022-12-16T03:12:06.851Z,-0.80
2022-12-16T03:14:37.798Z,-0.90
2022-12-16T03:17:08.520Z,-0.80
2022-12-16T03:19:39.215Z,-0.90
2022-12-16T03:22:11.588Z,-1.00
2022-12-16T03:24:40.407Z,-0.80
2022-12-16T03:27:15.125Z,-0.90
2022-12-16T03:29:51.520Z,-0.80
2022-12-16T03:32:28.138Z,-0.90
2022-12-16T03:35:01.926Z,-1.00
2022-12-16T03:37:34.140Z,-1.00
2022-12-16T03:40:05.124Z,-0.90
2022-12-16T03:42:34.093Z,-0.90
2022-12-16T03:45:02.066Z,-1.00
2022-12-16T03:47:31.431Z,-1.00
2022-12-16T03:49:59.277Z,-1.10
2022-12-16T03:52:27.085Z,-0.90
2022-12-16T03:54:55.227Z,-1.00
2022-12-16T03:57:23.040Z,-0.80
2022-12-16T03:59:50.875Z,-0.90
2022-12-16T04:02:18.847Z,-0.80
2022-12-16T04:04:48.209Z,-0.90
2022-12-16T04:07:22.000Z,-0.90
2022-12-16T04:09:52.542Z,-0.90
2022-12-16T04:12:38.525Z,-1.00
2022-12-16T04:15:25.421Z,-1.10
2022-12-16T04:18:11.220Z,-1.10
2022-12-16T04:21:01.309Z,-1.00
2022-12-16T04:23:49.018Z,-0.90
2022-12-16T04:26:17.355Z,-1.00
2022-12-16T04:28:45.477Z,-0.80
2022-12-16T04:31:13.366Z,-0.80
2022-12-16T04:33:59.813Z,-0.70
2022-12-16T04:36:46.587Z,-0.70
2022-12-16T04:39:31.976Z,-0.80
2022-12-16T04:42:17.509Z,-0.80
2022-12-16T04:45:02.948Z,-0.80
2022-12-16T04:47:51.428Z,-0.90
2022-12-16T04:50:39.377Z,-1.00
2022-12-16T04:53:26.164Z,-1.00
2022-12-16T04:56:11.583Z,-1.00
2022-12-16T04:58:56.999Z,-1.10
2022-12-16T05:01:42.495Z,-0.90
2022-12-16T05:04:27.763Z,-1.00
2022-12-16T05:07:13.143Z,-1.00
2022-12-16T05:09:59.903Z,-1.00
2022-12-16T05:12:45.492Z,-1.00
2022-12-16T05:15:30.832Z,-1.00
2022-12-16T05:18:16.352Z,-1.20
2022-12-16T05:21:01.761Z,-1.20
2022-12-16T05:23:47.219Z,-1.10
2022-12-16T05:26:34.022Z,-1.00
2022-12-16T05:29:19.543Z,-0.90
2022-12-16T05:32:04.903Z,-0.90
2022-12-16T05:34:50.300Z,-0.90
2022-12-16T05:37:32.088Z,-1.00
2022-12-16T05:40:17.497Z,-1.00
2022-12-16T05:43:06.181Z,-1.00
2022-12-16T05:45:51.910Z,-1.10
2022-12-16T05:48:37.447Z,-1.00
2022-12-16T05:51:23.050Z,-1.10
2022-12-16T05:54:08.590Z,-1.20
2022-12-16T05:56:50.332Z,-1.20
2022-12-16T05:59:37.203Z,-1.20
2022-12-16T06:02:22.740Z,-1.20
2022-12-16T06:05:07.988Z,-1.30
2022-12-16T06:07:53.420Z,-1.30
2022-12-16T06:10:38.934Z,-1.20
2022-12-16T06:13:24.390Z,-1.10
2022-12-16T06:16:11.176Z,-1.10
2022-12-16T06:18:56.507Z,-1.10
2022-12-16T06:21:42.511Z,-1.10
2022-12-16T06:24:28.087Z,-1.20
2022-12-16T06:27:13.507Z,-1.00
2022-12-16T06:29:58.776Z,-0.90
2022-12-16T06:32:45.571Z,-0.90
2022-12-16T06:35:31.058Z,-1.10
2022-12-16T06:38:16.524Z,-1.00
2022-12-16T06:41:02.080Z,-0.90
2022-12-16T06:43:47.307Z,-0.90
2022-12-16T06:46:32.941Z,-1.00
2022-12-16T06:49:20.054Z,-0.90
2022-12-16T06:52:05.548Z,-0.90
2022-12-16T06:54:50.985Z,-0.80
2022-12-16T06:57:36.329Z,-0.70
2022-12-16T07:00:22.692Z,-0.80
2022-12-16T07:03:08.320Z,-0.90
2022-12-16T07:05:55.009Z,-1.00
2022-12-16T07:08:40.514Z,-1.00
2022-12-16T07:11:25.992Z,-1.10
2022-12-16T07:14:11.348Z,-1.00
2022-12-16T07:16:56.973Z,-0.90
2022-12-16T07:19:42.461Z,-1.00
2022-12-16T07:22:29.260Z,-1.00
2022-12-16T07:25:14.830Z,-1.20
2022-12-16T07:28:04.704Z,-1.20
2022-12-16T07:30:50.185Z,-1.20
2022-12-16T07:33:35.548Z,-1.20
2022-12-16T07:36:21.279Z,-1.20
2022-12-16T07:39:08.063Z,-1.20
2022-12-16T07:41:54.084Z,-1.30
2022-12-16T07:44:39.540Z,-1.40
2022-12-16T07:47:36.591Z,-1.30
2022-12-16T07:50:22.293Z,-1.30
2022-12-16T07:53:12.672Z,-1.30
2022-12-16T07:55:59.502Z,-1.20
2022-12-16T07:58:44.927Z,-1.30
2022-12-16T08:01:30.657Z,-1.40
2022-12-16T08:04:16.160Z,-1.40
2022-12-16T08:07:01.782Z,-1.20
2022-12-16T08:09:46.965Z,-1.20
2022-12-16T08:12:33.745Z,-1.20
2022-12-16T08:15:19.346Z,-1.20
2022-12-16T08:18:08.540Z,-1.30
2022-12-16T08:20:55.321Z,-1.30
2022-12-16T08:23:41.328Z,-1.10
2022-12-16T08:26:26.757Z,-1.10
2022-12-16T08:29:42.732Z,-1.10
2022-12-16T08:32:18.821Z,-1.10
2022-12-16T08:35:04.395Z,-1.00
2022-12-16T08:37:49.993Z,-1.00
2022-12-16T08:40:37.036Z,-1.00
2022-12-16T08:43:22.935Z,-0.90
2022-12-16T08:46:12.539Z,-0.90
2022-12-16T08:48:57.954Z,-0.90
2022-12-16T08:51:43.525Z,-0.90
2022-12-16T08:54:28.943Z,-1.00
2022-12-16T08:57:14.413Z,-0.80
2022-12-16T08:59:59.893Z,-0.90
2022-12-16T09:02:47.250Z,-0.90
2022-12-16T09:05:32.636Z,-0.90
2022-12-16T09:08:19.044Z,-0.90
2022-12-16T09:11:04.691Z,-0.90
2022-12-16T09:14:01.516Z,-0.80
2022-12-16T09:16:55.277Z,-0.80
2022-12-16T09:19:42.744Z,-0.80
2022-12-16T09:22:28.281Z,-0.80
2022-12-16T09:25:13.675Z,-0.80
2022-12-16T09:27:59.184Z,-0.70
2022-12-16T09:30:44.572Z,-0.70
2022-12-16T09:33:30.461Z,-0.70
2022-12-16T09:36:17.368Z,-0.70
2022-12-16T09:39:02.764Z,-0.70
2022-12-16T09:41:59.757Z,-0.80
2022-12-16T09:45:01.259Z,-0.70
2022-12-16T09:48:10.963Z,-0.80
2022-12-16T09:50:58.538Z,-0.80
2022-12-16T09:53:47.150Z,-0.70
2022-12-16T09:56:35.546Z,-0.90
2022-12-16T09:59:26.140Z,-0.80
2022-12-16T10:02:24.308Z,-0.70
2022-12-16T10:05:11.031Z,-0.70
2022-12-16T10:08:05.443Z,-0.80
2022-12-16T10:10:59.616Z,-0.90
2022-12-16T10:13:54.244Z,-0.90
2022-12-16T10:16:47.571Z,-1.00
2022-12-16T10:19:49.624Z,-1.00
2022-12-16T10:22:43.826Z,-1.10
2022-12-16T10:25:35.457Z,-1.00
2022-12-16T10:28:31.997Z,-1.10
2022-12-16T10:31:18.182Z,-1.00
2022-12-16T10:34:07.608Z,-1.00
2022-12-16T10:36:54.553Z,-0.80
2022-12-16T10:39:43.880Z,-0.80
2022-12-16T10:42:39.091Z,-0.90
2022-12-16T10:45:39.712Z,-0.90
2022-12-16T10:48:27.212Z,-0.90
2022-12-16T10:51:12.568Z,-0.90
2022-12-16T10:53:57.894Z,-0.80
2022-12-16T10:57:09.904Z,-0.70
2022-12-16T10:59:57.903Z,-0.60
2022-12-16T11:02:46.174Z,-0.60
2022-12-16T11:05:51.918Z,-0.70
2022-12-16T11:08:44.064Z,-0.70
2022-12-16T11:11:38.532Z,-0.60
2022-12-16T11:14:37.117Z,-0.70
2022-12-16T11:17:37.868Z,-0.60
2022-12-16T11:20:32.143Z,-0.60
2022-12-16T11:23:36.696Z,-0.50
2022-12-16T11:26:33.086Z,-0.50
2022-12-16T11:29:29.346Z,-0.60
2022-12-16T11:32:19.140Z,-0.50
2022-12-16T11:35:10.439Z,-0.50
2022-12-16T11:37:58.549Z,-0.50
2022-12-16T11:40:44.598Z,-0.50
2022-12-16T11:43:32.738Z,-0.50
2022-12-16T11:46:22.479Z,-0.40
2022-12-16T11:49:11.074Z,-0.30
2022-12-16T11:52:20.980Z,-0.40
2022-12-16T11:55:15.367Z,-0.40
2022-12-16T11:58:06.203Z,-0.40
2022-12-16T12:00:58.268Z,-0.60
2022-12-16T12:03:46.436Z,-0.60
2022-12-16T12:06:43.167Z,-0.60
2022-12-16T12:09:34.865Z,-0.50
2022-12-16T12:12:33.721Z,-0.60
2022-12-16T12:15:29.191Z,-0.50
2022-12-16T12:18:20.594Z,-0.50
2022-12-16T12:21:16.658Z,-0.50
2022-12-16T12:24:10.031Z,-0.50
2022-12-16T12:27:02.032Z,-0.50
2022-12-16T12:29:52.062Z,-0.40
2022-12-16T12:32:44.606Z,-0.40
2022-12-16T12:35:46.751Z,-0.30
2022-12-16T12:38:37.235Z,-0.30
2022-12-16T12:41:30.831Z,-0.30
2022-12-16T12:44:24.919Z,-0.40
2022-12-16T12:47:17.312Z,-0.30
2022-12-16T12:50:08.362Z,-0.20
2022-12-16T12:53:18.073Z,-0.30
2022-12-16T12:56:13.755Z,-0.30
2022-12-16T12:59:12.258Z,-0.40
2022-12-16T13:02:01.297Z,-0.40
2022-12-16T13:04:59.128Z,-0.50
2022-12-16T13:07:44.537Z,-0.50
2022-12-16T13:10:32.395Z,-0.50
2022-12-16T13:13:49.841Z,-0.60
2022-12-16T13:17:25.809Z,-0.60
2022-12-16T13:20:14.718Z,-0.70
2022-12-16T13:23:01.749Z,-0.60
2022-12-16T13:25:59.274Z,-0.70
2022-12-16T13:28:48.071Z,-0.80
2022-12-16T13:31:33.989Z,-0.70
2022-12-16T13:34:24.957Z,-0.70
2022-12-16T13:37:23.599Z,-0.60
2022-12-16T13:40:22.935Z,-0.50
2022-12-16T13:43:13.402Z,-0.40
2022-12-16T13:46:01.056Z,-0.40
2022-12-16T13:48:55.250Z,-0.40
2022-12-16T13:52:26.286Z,-0.60
2022-12-16T13:55:25.098Z,-0.50
2022-12-16T13:58:18.547Z,-0.60
2022-12-16T14:01:16.012Z,-0.70
2022-12-16T14:04:05.994Z,-0.60
2022-12-16T14:06:55.455Z,-0.60
2022-12-16T14:09:54.620Z,-0.50
2022-12-16T14:13:02.402Z,-0.60
2022-12-16T14:15:54.365Z,-0.60
2022-12-16T14:18:50.424Z,-0.70
2022-12-16T14:21:42.552Z,-0.80
2022-12-16T14:24:36.503Z,-0.70
2022-12-16T14:27:29.805Z,-0.50
2022-12-16T14:30:17.188Z,-0.60
2022-12-16T14:33:02.661Z,-0.70
2022-12-16T14:35:48.127Z,-0.80
2022-12-16T14:38:44.587Z,-0.80
2022-12-16T14:41:31.553Z,-0.80
2022-12-16T14:44:17.387Z,-0.40
2022-12-16T14:47:09.085Z,-0.80
2022-12-16T14:49:54.412Z,-0.90
2022-12-16T14:52:41.941Z,-0.70
2022-12-16T14:55:34.460Z,-0.90
2022-12-16T14:58:25.223Z,-0.70
2022-12-16T15:01:15.969Z,-0.80
2022-12-16T15:04:05.267Z,-0.80
2022-12-16T15:06:56.341Z,-0.80
2022-12-16T15:09:46.901Z,-0.80
2022-12-16T15:12:34.311Z,-1.00
2022-12-16T15:15:23.601Z,-1.00
2022-12-16T15:18:11.224Z,-1.00
2022-12-16T15:21:06.099Z,-1.10
2022-12-16T15:23:52.957Z,-1.10
2022-12-16T15:26:39.566Z,-0.80
2022-12-16T15:29:46.572Z,-0.80
2022-12-16T15:32:48.907Z,-0.90
2022-12-16T15:35:45.139Z,-0.90
2022-12-16T15:38:42.110Z,-1.00
2022-12-16T15:41:39.560Z,-1.00
2022-12-16T15:44:40.528Z,-0.80
2022-12-16T15:47:39.066Z,-0.80
2022-12-16T15:50:25.616Z,-0.90
2022-12-16T15:53:11.084Z,-0.90
2022-12-16T15:56:04.659Z,-0.90
2022-12-16T15:58:52.411Z,-1.10
2022-12-16T16:01:40.324Z,-1.20
2022-12-16T16:04:37.960Z,-1.10
2022-12-16T16:07:31.985Z,-1.10
2022-12-16T16:10:27.050Z,-1.10
2022-12-16T16:13:13.793Z,-1.30
2022-12-16T16:15:59.497Z,-1.40
2022-12-16T16:18:44.697Z,-1.50
2022-12-16T16:21:30.387Z,-1.50
2022-12-16T16:24:18.107Z,-1.50
2022-12-16T16:27:03.652Z,-1.20
2022-12-16T16:29:50.265Z,-1.10
2022-12-16T16:32:35.724Z,-1.00
2022-12-16T16:35:21.265Z,-1.10
2022-12-16T16:38:06.910Z,-1.20
2022-12-16T16:40:54.835Z,-1.20
2022-12-16T16:43:41.281Z,-1.10
2022-12-16T16:46:51.424Z,-1.10
2022-12-16T16:49:40.856Z,-1.20
2022-12-16T16:52:30.857Z,-1.30
2022-12-16T16:55:16.469Z,-1.30
2022-12-16T16:58:02.316Z,-1.30
2022-12-16T17:00:47.691Z,-1.30
2022-12-16T17:03:34.938Z,-1.30
2022-12-16T17:06:20.577Z,-1.20
2022-12-16T17:09:06.316Z,-1.30
2022-12-16T17:11:52.771Z,-1.30
2022-12-16T17:14:39.718Z,-1.50
2022-12-16T17:17:26.066Z,-1.50
2022-12-16T17:20:12.860Z,-1.50
2022-12-16T17:22:58.458Z,-1.50
2022-12-16T17:25:44.246Z,-1.60
2022-12-16T17:28:30.341Z,-1.60
2022-12-16T17:31:15.971Z,-1.60
2022-12-16T17:34:01.150Z,-1.50
2022-12-16T17:36:47.945Z,-1.50
2022-12-16T17:39:33.470Z,-1.60
2022-12-16T17:42:18.748Z,-1.70
2022-12-16T17:45:04.196Z,-1.70
2022-12-16T17:47:49.594Z,-1.70
2022-12-16T17:50:35.027Z,-1.40
2022-12-16T17:53:21.809Z,-1.20
2022-12-16T17:56:07.132Z,-1.10
2022-12-16T17:58:54.086Z,-1.20
2022-12-16T18:01:40.188Z,-1.10
2022-12-16T18:04:26.369Z,-1.10
2022-12-16T18:07:12.148Z,-0.90
2022-12-16T18:09:59.089Z,-0.80
2022-12-16T18:12:45.226Z,-0.90
2022-12-16T18:15:30.779Z,-1.00
2022-12-16T18:18:16.085Z,-1.10
2022-12-16T18:21:01.588Z,-1.20
2022-12-16T18:23:48.391Z,-1.30
2022-12-16T18:26:36.033Z,-1.30
2022-12-16T18:29:21.540Z,-1.30
2022-12-16T18:32:18.717Z,-1.20
2022-12-16T18:35:04.132Z,-1.30
2022-12-16T18:37:49.552Z,-1.40
2022-12-16T18:40:35.059Z,-1.40
2022-12-16T18:43:21.981Z,-1.50
2022-12-16T18:46:11.076Z,-1.40
2022-12-16T18:48:56.385Z,-1.40
2022-12-16T18:51:41.869Z,-1.40
2022-12-16T18:54:27.208Z,-1.40
2022-12-16T18:57:12.704Z,-1.60
2022-12-16T18:59:59.447Z,-1.30
2022-12-16T19:02:56.494Z,-1.20
2022-12-16T19:05:42.081Z,-1.40
2022-12-16T19:08:27.614Z,-1.50
2022-12-16T19:11:14.977Z,-1.50
2022-12-16T19:14:00.354Z,-1.50
2022-12-16T19:16:47.267Z,-1.50
2022-12-16T19:19:32.654Z,-1.50
2022-12-16T19:22:18.118Z,-1.20
2022-12-16T19:25:03.624Z,-1.20
2022-12-16T19:27:49.128Z,-1.30
2022-12-16T19:30:36.228Z,-1.30
2022-12-16T19:33:23.573Z,-1.50
2022-12-16T19:36:09.061Z,-1.50
2022-12-16T19:38:55.045Z,-1.40
2022-12-16T19:41:42.063Z,-1.50
2022-12-16T19:44:27.427Z,-1.50
2022-12-16T19:47:12.871Z,-1.60
2022-12-16T19:49:59.710Z,-1.60
2022-12-16T19:52:45.152Z,-1.70
2022-12-16T19:55:31.696Z,-1.70
2022-12-16T19:58:17.064Z,-1.70
2022-12-16T20:01:02.480Z,-1.80
2022-12-16T20:03:48.818Z,-1.70
2022-12-16T20:06:35.911Z,-1.70
2022-12-16T20:09:21.476Z,-1.60
2022-12-16T20:12:06.873Z,-1.80
2022-12-16T20:14:52.265Z,-1.90
2022-12-16T20:17:38.737Z,-1.90
2022-12-16T20:20:24.485Z,-1.90
2022-12-16T20:23:24.750Z,-1.90
2022-12-16T20:26:13.820Z,-2.00
2022-12-16T20:28:59.228Z,-2.00
2022-12-16T20:31:45.210Z,-2.10
2022-12-16T20:34:30.728Z,-2.20
2022-12-16T20:37:16.239Z,-2.20
2022-12-16T20:40:08.399Z,-2.20
2022-12-16T20:42:54.975Z,-2.10
2022-12-16T20:45:41.842Z,-2.00
2022-12-16T20:48:32.181Z,-2.00
2022-12-16T20:51:25.860Z,-2.00
2022-12-16T20:54:12.149Z,-2.00
2022-12-16T20:57:12.508Z,-2.10
2022-12-16T20:59:58.546Z,-1.90
2022-12-16T21:02:44.081Z,-1.90
2022-12-16T21:05:29.533Z,-2.00
2022-12-16T21:08:14.983Z,-2.10
2022-12-16T21:11:00.497Z,-2.00
2022-12-16T21:13:47.715Z,-2.00
2022-12-16T21:16:33.263Z,-2.00
2022-12-16T21:19:18.725Z,-1.90
2022-12-16T21:22:04.243Z,-1.90
2022-12-16T21:24:49.946Z,-2.00
2022-12-16T21:27:35.380Z,-2.00
2022-12-16T21:30:22.603Z,-2.00
2022-12-16T21:33:09.215Z,-2.00
2022-12-16T21:35:56.028Z,-2.00
2022-12-16T21:38:41.554Z,-2.10
2022-12-16T21:41:32.289Z,-2.10
2022-12-16T21:44:17.611Z,-2.00
2022-12-16T21:47:04.360Z,-2.10
2022-12-16T21:49:49.876Z,-2.00
2022-12-16T21:52:35.153Z,-2.00
2022-12-16T21:55:20.720Z,-1.90
2022-12-16T21:58:06.132Z,-1.90
2022-12-16T22:00:53.587Z,-2.10
2022-12-16T22:03:56.916Z,-2.00
2022-12-16T22:09:47.733Z,-1.90
2022-12-16T22:12:33.118Z,-2.00
2022-12-16T22:15:18.618Z,-1.90
2022-12-16T22:18:04.022Z,-2.00
2022-12-16T22:20:47.172Z,-2.10
2022-12-16T22:23:32.708Z,-2.10
2022-12-16T22:26:19.304Z,-2.20
2022-12-16T22:29:04.816Z,-2.20
2022-12-16T22:31:50.193Z,-2.10
2022-12-16T22:34:36.083Z,-2.10
2022-12-16T22:36:21.966Z,-1.80
2022-12-16T22:37:31.158Z,-2.20
2022-12-16T22:40:16.569Z,-2.30
2022-12-16T22:43:01.985Z,-2.30
2022-12-16T22:45:47.660Z,-2.50
2022-12-16T22:48:33.128Z,-2.50
2022-12-16T22:51:18.632Z,-2.60
2022-12-16T22:54:06.893Z,-2.50
2022-12-16T22:56:52.225Z,-2.50
2022-12-16T22:59:37.716Z,-2.50
2022-12-16T23:02:23.081Z,-2.70
2022-12-16T23:05:08.528Z,-2.80
2022-12-16T23:08:06.327Z,-2.90
2022-12-16T23:10:53.013Z,-3.00
2022-12-16T23:13:44.946Z,-3.00
2022-12-16T23:16:30.537Z,-3.10
2022-12-16T23:19:16.281Z,-3.20
2022-12-16T23:22:01.987Z,-3.30
2022-12-16T23:24:47.462Z,-3.20
2022-12-16T23:27:34.263Z,-3.30
2022-12-16T23:30:19.857Z,-3.10
2022-12-16T23:33:04.451Z,-3.30
2022-12-16T23:35:49.948Z,-3.10
2022-12-16T23:38:35.320Z,-3.10
2022-12-16T23:41:20.836Z,-3.30
2022-12-16T23:44:07.353Z,-3.50
2022-12-16T23:46:53.434Z,-3.50
2022-12-16T23:49:38.928Z,-3.40
2022-12-16T23:52:24.359Z,-3.20
2022-12-16T23:55:09.716Z,-3.40
2022-12-16T23:57:56.095Z,-3.50
